sensor_id;sensor_type;location;lat;lon;timestamp;P1;durP1;ratioP1;P2;durP2;ratioP2
69161;SDS011;56269;51.738;21.652;2022-11-15T00:01:17;36.15;;;12.45;;
69161;SDS011;56269;51.738;21.652;2022-11-15T00:03:44;38.35;;;13.90;;
69161;SDS011;56269;51.738;21.652;2022-11-15T00:06:11;49.20;;;14.90;;
69161;SDS011;56269;51.738;21.652;2022-11-15T00:08:38;46.30;;;14.90;;
69161;SDS011;56269;51.738;21.652;2022-11-15T00:11:04;43.50;;;13.73;;
69161;SDS011;56269;51.738;21.652;2022-11-15T00:13:30;28.60;;;9.45;;
69161;SDS011;56269;51.738;21.652;2022-11-15T00:15:57;39.28;;;12.38;;
69161;SDS011;56269;51.738;21.652;2022-11-15T00:18:24;36.15;;;12.95;;
69161;SDS011;56269;51.738;21.652;2022-11-15T00:20:50;42.20;;;15.10;;
69161;SDS011;56269;51.738;21.652;2022-11-15T00:23:17;39.30;;;14.20;;
69161;SDS011;56269;51.738;21.652;2022-11-15T00:25:43;41.85;;;13.88;;
69161;SDS011;56269;51.738;21.652;2022-11-15T00:28:09;45.17;;;15.25;;
69161;SDS011;56269;51.738;21.652;2022-11-15T00:30:35;45.70;;;15.47;;
69161;SDS011;56269;51.738;21.652;2022-11-15T00:33:08;40.50;;;14.43;;
69161;SDS011;56269;51.738;21.652;2022-11-15T00:35:34;37.97;;;13.23;;
69161;SDS011;56269;51.738;21.652;2022-11-15T00:38:01;38.20;;;13.98;;
69161;SDS011;56269;51.738;21.652;2022-11-15T00:40:28;38.58;;;12.95;;
69161;SDS011;56269;51.738;21.652;2022-11-15T00:42:55;46.65;;;15.48;;
69161;SDS011;56269;51.738;21.652;2022-11-15T00:45:21;47.77;;;15.53;;
69161;SDS011;56269;51.738;21.652;2022-11-15T00:47:49;50.28;;;16.05;;
69161;SDS011;56269;51.738;21.652;2022-11-15T00:50:15;47.50;;;14.07;;
69161;SDS011;56269;51.738;21.652;2022-11-15T00:52:41;49.42;;;15.82;;
69161;SDS011;56269;51.738;21.652;2022-11-15T00:55:17;47.45;;;15.68;;
69161;SDS011;56269;51.738;21.652;2022-11-15T00:57:45;44.17;;;16.10;;
69161;SDS011;56269;51.738;21.652;2022-11-15T01:00:12;40.97;;;12.70;;
69161;SDS011;56269;51.738;21.652;2022-11-15T01:02:38;38.55;;;13.23;;
69161;SDS011;56269;51.738;21.652;2022-11-15T01:05:05;39.28;;;13.25;;
69161;SDS011;56269;51.738;21.652;2022-11-15T01:07:31;39.23;;;14.03;;
69161;SDS011;56269;51.738;21.652;2022-11-15T01:09:57;45.47;;;13.25;;
69161;SDS011;56269;51.738;21.652;2022-11-15T01:12:24;46.45;;;14.85;;
69161;SDS011;56269;51.738;21.652;2022-11-15T01:14:50;49.90;;;15.23;;
69161;SDS011;56269;51.738;21.652;2022-11-15T01:17:16;33.10;;;11.48;;
69161;SDS011;56269;51.738;21.652;2022-11-15T01:19:42;44.10;;;14.57;;
69161;SDS011;56269;51.738;21.652;2022-11-15T01:22:08;41.58;;;13.27;;
69161;SDS011;56269;51.738;21.652;2022-11-15T01:24:34;41.97;;;12.98;;
69161;SDS011;56269;51.738;21.652;2022-11-15T01:27:01;44.40;;;15.70;;
69161;SDS011;56269;51.738;21.652;2022-11-15T01:29:27;41.00;;;14.90;;
69161;SDS011;56269;51.738;21.652;2022-11-15T01:31:53;33.23;;;12.07;;
69161;SDS011;56269;51.738;21.652;2022-11-15T01:34:19;39.20;;;12.55;;
69161;SDS011;56269;51.738;21.652;2022-11-15T01:36:46;38.78;;;13.98;;
69161;SDS011;56269;51.738;21.652;2022-11-15T01:39:12;32.90;;;10.70;;
69161;SDS011;56269;51.738;21.652;2022-11-15T01:41:38;47.88;;;15.20;;
69161;SDS011;56269;51.738;21.652;2022-11-15T01:47:15;41.80;;;13.52;;
69161;SDS011;56269;51.738;21.652;2022-11-15T01:49:51;47.35;;;15.98;;
69161;SDS011;56269;51.738;21.652;2022-11-15T01:52:24;45.10;;;15.52;;
69161;SDS011;56269;51.738;21.652;2022-11-15T01:54:53;49.00;;;15.93;;
69161;SDS011;56269;51.738;21.652;2022-11-15T01:57:26;31.80;;;12.47;;
69161;SDS011;56269;51.738;21.652;2022-11-15T01:59:53;42.67;;;13.20;;
69161;SDS011;56269;51.738;21.652;2022-11-15T02:05:11;32.00;;;10.60;;
69161;SDS011;56269;51.738;21.652;2022-11-15T02:07:38;44.45;;;14.70;;
69161;SDS011;56269;51.738;21.652;2022-11-15T02:10:27;49.70;;;15.83;;
69161;SDS011;56269;51.738;21.652;2022-11-15T02:12:53;42.33;;;12.38;;
69161;SDS011;56269;51.738;21.652;2022-11-15T02:15:24;45.22;;;14.82;;
69161;SDS011;56269;51.738;21.652;2022-11-15T02:34:50;50.00;;;15.70;;
69161;SDS011;56269;51.738;21.652;2022-11-15T02:37:44;50.03;;;15.73;;
69161;SDS011;56269;51.738;21.652;2022-11-15T02:43:10;47.83;;;15.40;;
69161;SDS011;56269;51.738;21.652;2022-11-15T02:46:00;60.00;;;16.88;;
69161;SDS011;56269;51.738;21.652;2022-11-15T02:48:46;50.00;;;15.68;;
69161;SDS011;56269;51.738;21.652;2022-11-15T02:51:14;46.63;;;14.23;;
69161;SDS011;56269;51.738;21.652;2022-11-15T02:53:42;43.95;;;11.50;;
69161;SDS011;56269;51.738;21.652;2022-11-15T02:56:08;44.08;;;14.25;;
69161;SDS011;56269;51.738;21.652;2022-11-15T03:01:34;48.95;;;14.98;;
69161;SDS011;56269;51.738;21.652;2022-11-15T03:11:59;47.72;;;14.55;;
69161;SDS011;56269;51.738;21.652;2022-11-15T03:14:48;65.47;;;17.05;;
69161;SDS011;56269;51.738;21.652;2022-11-15T03:17:38;61.23;;;16.73;;
69161;SDS011;56269;51.738;21.652;2022-11-15T03:20:11;56.63;;;15.40;;
69161;SDS011;56269;51.738;21.652;2022-11-15T03:22:42;68.13;;;17.75;;
69161;SDS011;56269;51.738;21.652;2022-11-15T03:25:11;72.00;;;18.20;;
69161;SDS011;56269;51.738;21.652;2022-11-15T03:27:50;62.17;;;18.27;;
69161;SDS011;56269;51.738;21.652;2022-11-15T03:30:19;74.80;;;18.97;;
69161;SDS011;56269;51.738;21.652;2022-11-15T03:32:47;69.03;;;18.63;;
69161;SDS011;56269;51.738;21.652;2022-11-15T03:35:23;63.53;;;16.73;;
69161;SDS011;56269;51.738;21.652;2022-11-15T03:37:53;71.10;;;18.70;;
69161;SDS011;56269;51.738;21.652;2022-11-15T03:40:29;73.35;;;18.67;;
69161;SDS011;56269;51.738;21.652;2022-11-15T03:43:06;65.77;;;16.37;;
69161;SDS011;56269;51.738;21.652;2022-11-15T03:46:02;59.22;;;16.10;;
69161;SDS011;56269;51.738;21.652;2022-11-15T03:48:34;50.92;;;14.75;;
69161;SDS011;56269;51.738;21.652;2022-11-15T03:51:07;46.75;;;13.35;;
69161;SDS011;56269;51.738;21.652;2022-11-15T03:53:34;56.40;;;14.80;;
69161;SDS011;56269;51.738;21.652;2022-11-15T03:56:00;53.27;;;15.27;;
69161;SDS011;56269;51.738;21.652;2022-11-15T03:58:26;56.78;;;16.25;;
69161;SDS011;56269;51.738;21.652;2022-11-15T04:00:52;67.40;;;16.85;;
69161;SDS011;56269;51.738;21.652;2022-11-15T04:03:18;54.30;;;15.50;;
69161;SDS011;56269;51.738;21.652;2022-11-15T04:05:44;69.90;;;17.77;;
69161;SDS011;56269;51.738;21.652;2022-11-15T04:08:10;42.78;;;11.82;;
69161;SDS011;56269;51.738;21.652;2022-11-15T04:10:36;47.17;;;13.48;;
69161;SDS011;56269;51.738;21.652;2022-11-15T04:13:03;62.65;;;15.73;;
69161;SDS011;56269;51.738;21.652;2022-11-15T04:15:29;54.30;;;14.30;;
69161;SDS011;56269;51.738;21.652;2022-11-15T04:17:56;43.10;;;11.48;;
69161;SDS011;56269;51.738;21.652;2022-11-15T04:23:22;50.70;;;13.70;;
69161;SDS011;56269;51.738;21.652;2022-11-15T04:26:11;51.75;;;15.05;;
69161;SDS011;56269;51.738;21.652;2022-11-15T04:28:41;50.77;;;14.23;;
69161;SDS011;56269;51.738;21.652;2022-11-15T04:31:26;53.90;;;14.50;;
69161;SDS011;56269;51.738;21.652;2022-11-15T04:33:52;64.20;;;16.35;;
69161;SDS011;56269;51.738;21.652;2022-11-15T04:36:19;55.90;;;14.48;;
69161;SDS011;56269;51.738;21.652;2022-11-15T04:39:04;53.00;;;14.88;;
69161;SDS011;56269;51.738;21.652;2022-11-15T04:41:30;54.43;;;15.63;;
69161;SDS011;56269;51.738;21.652;2022-11-15T04:43:57;56.90;;;15.23;;
69161;SDS011;56269;51.738;21.652;2022-11-15T04:46:23;54.40;;;13.73;;
69161;SDS011;56269;51.738;21.652;2022-11-15T04:48:50;55.65;;;14.35;;
69161;SDS011;56269;51.738;21.652;2022-11-15T04:51:17;58.03;;;13.45;;
69161;SDS011;56269;51.738;21.652;2022-11-15T04:53:43;55.80;;;13.83;;
69161;SDS011;56269;51.738;21.652;2022-11-15T04:56:10;51.38;;;13.90;;
69161;SDS011;56269;51.738;21.652;2022-11-15T04:58:37;43.55;;;11.68;;
69161;SDS011;56269;51.738;21.652;2022-11-15T05:01:13;45.28;;;12.00;;
69161;SDS011;56269;51.738;21.652;2022-11-15T05:03:43;59.65;;;14.00;;
69161;SDS011;56269;51.738;21.652;2022-11-15T05:06:28;48.47;;;11.57;;
69161;SDS011;56269;51.738;21.652;2022-11-15T05:08:55;41.28;;;11.65;;
69161;SDS011;56269;51.738;21.652;2022-11-15T05:11:22;64.72;;;14.15;;
69161;SDS011;56269;51.738;21.652;2022-11-15T05:13:48;42.00;;;11.00;;
69161;SDS011;56269;51.738;21.652;2022-11-15T05:16:15;49.55;;;11.60;;
69161;SDS011;56269;51.738;21.652;2022-11-15T05:18:41;28.03;;;8.73;;
69161;SDS011;56269;51.738;21.652;2022-11-15T05:21:09;44.42;;;11.20;;
69161;SDS011;56269;51.738;21.652;2022-11-15T05:23:36;66.35;;;13.52;;
69161;SDS011;56269;51.738;21.652;2022-11-15T05:26:03;56.13;;;12.10;;
69161;SDS011;56269;51.738;21.652;2022-11-15T05:28:31;63.88;;;12.23;;
69161;SDS011;56269;51.738;21.652;2022-11-15T05:31:07;59.90;;;11.73;;
69161;SDS011;56269;51.738;21.652;2022-11-15T05:33:43;44.22;;;10.65;;
69161;SDS011;56269;51.738;21.652;2022-11-15T05:36:32;81.13;;;12.90;;
69161;SDS011;56269;51.738;21.652;2022-11-15T05:39:04;63.17;;;11.13;;
69161;SDS011;56269;51.738;21.652;2022-11-15T05:41:33;64.93;;;11.68;;
69161;SDS011;56269;51.738;21.652;2022-11-15T05:44:03;76.20;;;11.50;;
69161;SDS011;56269;51.738;21.652;2022-11-15T05:46:33;81.35;;;12.25;;
69161;SDS011;56269;51.738;21.652;2022-11-15T05:49:00;86.57;;;11.50;;
69161;SDS011;56269;51.738;21.652;2022-11-15T05:51:26;59.05;;;11.38;;
69161;SDS011;56269;51.738;21.652;2022-11-15T05:53:55;47.58;;;9.68;;
69161;SDS011;56269;51.738;21.652;2022-11-15T05:56:23;41.03;;;8.33;;
69161;SDS011;56269;51.738;21.652;2022-11-15T05:58:52;45.33;;;8.93;;
69161;SDS011;56269;51.738;21.652;2022-11-15T06:01:21;55.55;;;9.30;;
69161;SDS011;56269;51.738;21.652;2022-11-15T06:03:47;40.22;;;9.60;;
69161;SDS011;56269;51.738;21.652;2022-11-15T06:06:13;89.60;;;12.40;;
69161;SDS011;56269;51.738;21.652;2022-11-15T06:08:40;49.60;;;9.07;;
69161;SDS011;56269;51.738;21.652;2022-11-15T06:11:06;71.90;;;10.30;;
69161;SDS011;56269;51.738;21.652;2022-11-15T06:13:33;79.18;;;11.05;;
69161;SDS011;56269;51.738;21.652;2022-11-15T06:16:00;63.35;;;10.35;;
69161;SDS011;56269;51.738;21.652;2022-11-15T06:18:26;67.10;;;9.70;;
69161;SDS011;56269;51.738;21.652;2022-11-15T06:20:52;79.15;;;9.77;;
69161;SDS011;56269;51.738;21.652;2022-11-15T06:23:19;80.82;;;10.27;;
69161;SDS011;56269;51.738;21.652;2022-11-15T06:25:44;90.57;;;9.30;;
69161;SDS011;56269;51.738;21.652;2022-11-15T06:28:11;88.80;;;11.30;;
69161;SDS011;56269;51.738;21.652;2022-11-15T06:30:37;119.20;;;11.87;;
69161;SDS011;56269;51.738;21.652;2022-11-15T06:33:04;72.28;;;10.55;;
69161;SDS011;56269;51.738;21.652;2022-11-15T06:35:32;153.88;;;12.90;;
69161;SDS011;56269;51.738;21.652;2022-11-15T06:38:03;66.40;;;10.65;;
69161;SDS011;56269;51.738;21.652;2022-11-15T06:40:50;103.07;;;12.00;;
69161;SDS011;56269;51.738;21.652;2022-11-15T06:43:16;89.30;;;10.80;;
69161;SDS011;56269;51.738;21.652;2022-11-15T06:45:42;86.55;;;11.18;;
69161;SDS011;56269;51.738;21.652;2022-11-15T06:48:08;52.28;;;10.18;;
69161;SDS011;56269;51.738;21.652;2022-11-15T06:50:34;72.28;;;11.85;;
69161;SDS011;56269;51.738;21.652;2022-11-15T06:53:02;83.87;;;11.57;;
69161;SDS011;56269;51.738;21.652;2022-11-15T06:55:29;65.85;;;10.93;;
69161;SDS011;56269;51.738;21.652;2022-11-15T06:57:55;66.47;;;11.48;;
69161;SDS011;56269;51.738;21.652;2022-11-15T07:00:21;43.55;;;10.45;;
69161;SDS011;56269;51.738;21.652;2022-11-15T07:02:48;67.18;;;11.00;;
69161;SDS011;56269;51.738;21.652;2022-11-15T07:05:14;43.13;;;9.63;;
69161;SDS011;56269;51.738;21.652;2022-11-15T07:07:41;50.65;;;9.32;;
69161;SDS011;56269;51.738;21.652;2022-11-15T07:10:08;50.60;;;8.82;;
69161;SDS011;56269;51.738;21.652;2022-11-15T07:12:35;72.93;;;10.60;;
69161;SDS011;56269;51.738;21.652;2022-11-15T07:15:01;97.10;;;10.63;;
69161;SDS011;56269;51.738;21.652;2022-11-15T07:17:27;57.23;;;9.83;;
69161;SDS011;56269;51.738;21.652;2022-11-15T07:19:53;115.55;;;10.60;;
69161;SDS011;56269;51.738;21.652;2022-11-15T07:22:19;91.80;;;10.25;;
69161;SDS011;56269;51.738;21.652;2022-11-15T07:24:45;64.32;;;10.57;;
69161;SDS011;56269;51.738;21.652;2022-11-15T07:27:12;47.63;;;9.88;;
69161;SDS011;56269;51.738;21.652;2022-11-15T07:29:38;51.80;;;10.03;;
69161;SDS011;56269;51.738;21.652;2022-11-15T07:32:04;59.67;;;10.32;;
69161;SDS011;56269;51.738;21.652;2022-11-15T07:34:30;60.70;;;9.95;;
69161;SDS011;56269;51.738;21.652;2022-11-15T07:36:56;65.43;;;9.98;;
69161;SDS011;56269;51.738;21.652;2022-11-15T07:39:22;79.00;;;9.70;;
69161;SDS011;56269;51.738;21.652;2022-11-15T07:41:48;76.55;;;11.75;;
69161;SDS011;56269;51.738;21.652;2022-11-15T07:44:34;62.88;;;9.65;;
69161;SDS011;56269;51.738;21.652;2022-11-15T07:47:00;72.57;;;11.00;;
69161;SDS011;56269;51.738;21.652;2022-11-15T07:49:26;66.57;;;9.63;;
69161;SDS011;56269;51.738;21.652;2022-11-15T07:51:53;75.37;;;9.67;;
69161;SDS011;56269;51.738;21.652;2022-11-15T07:54:19;89.03;;;9.90;;
69161;SDS011;56269;51.738;21.652;2022-11-15T07:56:45;83.88;;;7.82;;
69161;SDS011;56269;51.738;21.652;2022-11-15T07:59:11;67.07;;;8.70;;
69161;SDS011;56269;51.738;21.652;2022-11-15T08:01:37;103.57;;;9.87;;
69161;SDS011;56269;51.738;21.652;2022-11-15T08:04:03;44.55;;;9.95;;
69161;SDS011;56269;51.738;21.652;2022-11-15T08:06:30;66.07;;;9.98;;
69161;SDS011;56269;51.738;21.652;2022-11-15T08:08:56;86.75;;;9.70;;
69161;SDS011;56269;51.738;21.652;2022-11-15T08:11:22;89.28;;;9.68;;
69161;SDS011;56269;51.738;21.652;2022-11-15T08:13:48;62.17;;;9.53;;
69161;SDS011;56269;51.738;21.652;2022-11-15T08:16:14;65.53;;;8.35;;
69161;SDS011;56269;51.738;21.652;2022-11-15T08:18:40;51.67;;;8.00;;
69161;SDS011;56269;51.738;21.652;2022-11-15T08:21:08;62.65;;;10.50;;
69161;SDS011;56269;51.738;21.652;2022-11-15T08:23:35;77.23;;;10.87;;
69161;SDS011;56269;51.738;21.652;2022-11-15T08:26:02;47.50;;;10.95;;
69161;SDS011;56269;51.738;21.652;2022-11-15T08:28:29;32.58;;;8.57;;
69161;SDS011;56269;51.738;21.652;2022-11-15T08:30:57;44.13;;;10.77;;
69161;SDS011;56269;51.738;21.652;2022-11-15T08:33:23;48.23;;;10.77;;
69161;SDS011;56269;51.738;21.652;2022-11-15T08:35:50;28.90;;;8.33;;
69161;SDS011;56269;51.738;21.652;2022-11-15T08:38:16;53.33;;;11.00;;
69161;SDS011;56269;51.738;21.652;2022-11-15T08:40:42;34.15;;;10.10;;
69161;SDS011;56269;51.738;21.652;2022-11-15T08:43:08;29.40;;;10.60;;
69161;SDS011;56269;51.738;21.652;2022-11-15T08:45:35;37.83;;;8.97;;
69161;SDS011;56269;51.738;21.652;2022-11-15T08:48:02;41.30;;;10.85;;
69161;SDS011;56269;51.738;21.652;2022-11-15T08:50:29;47.88;;;10.00;;
69161;SDS011;56269;51.738;21.652;2022-11-15T08:52:55;54.08;;;10.30;;
69161;SDS011;56269;51.738;21.652;2022-11-15T08:55:22;41.92;;;9.30;;
69161;SDS011;56269;51.738;21.652;2022-11-15T08:57:48;59.77;;;11.07;;
69161;SDS011;56269;51.738;21.652;2022-11-15T09:00:14;28.52;;;8.52;;
69161;SDS011;56269;51.738;21.652;2022-11-15T09:02:41;45.25;;;9.63;;
69161;SDS011;56269;51.738;21.652;2022-11-15T09:05:07;32.25;;;9.65;;
69161;SDS011;56269;51.738;21.652;2022-11-15T09:07:34;34.70;;;8.68;;
69161;SDS011;56269;51.738;21.652;2022-11-15T09:10:00;35.17;;;10.23;;
69161;SDS011;56269;51.738;21.652;2022-11-15T09:12:26;28.30;;;9.68;;
69161;SDS011;56269;51.738;21.652;2022-11-15T09:14:52;40.67;;;11.38;;
69161;SDS011;56269;51.738;21.652;2022-11-15T09:17:18;36.10;;;11.93;;
69161;SDS011;56269;51.738;21.652;2022-11-15T09:19:45;35.08;;;11.00;;
69161;SDS011;56269;51.738;21.652;2022-11-15T09:22:10;30.27;;;10.47;;
69161;SDS011;56269;51.738;21.652;2022-11-15T09:24:37;38.63;;;11.55;;
69161;SDS011;56269;51.738;21.652;2022-11-15T09:27:03;32.08;;;9.95;;
69161;SDS011;56269;51.738;21.652;2022-11-15T09:29:29;33.92;;;9.60;;
69161;SDS011;56269;51.738;21.652;2022-11-15T09:31:55;31.70;;;10.60;;
69161;SDS011;56269;51.738;21.652;2022-11-15T09:34:21;35.10;;;10.40;;
69161;SDS011;56269;51.738;21.652;2022-11-15T09:36:47;33.47;;;11.50;;
69161;SDS011;56269;51.738;21.652;2022-11-15T09:39:13;35.17;;;11.55;;
69161;SDS011;56269;51.738;21.652;2022-11-15T09:47:22;33.88;;;11.55;;
69161;SDS011;56269;51.738;21.652;2022-11-15T09:49:58;30.50;;;10.25;;
69161;SDS011;56269;51.738;21.652;2022-11-15T09:52:27;27.80;;;9.70;;
69161;SDS011;56269;51.738;21.652;2022-11-15T09:54:53;33.73;;;11.43;;
69161;SDS011;56269;51.738;21.652;2022-11-15T09:57:26;29.88;;;10.15;;
69161;SDS011;56269;51.738;21.652;2022-11-15T10:05:43;31.35;;;11.75;;
69161;SDS011;56269;51.738;21.652;2022-11-15T10:11:08;29.45;;;10.48;;
69161;SDS011;56269;51.738;21.652;2022-11-15T10:13:37;33.78;;;11.35;;
69161;SDS011;56269;51.738;21.652;2022-11-15T10:16:13;33.17;;;11.40;;
69161;SDS011;56269;51.738;21.652;2022-11-15T10:18:54;31.98;;;11.00;;
69161;SDS011;56269;51.738;21.652;2022-11-15T10:21:38;29.43;;;11.93;;
69161;SDS011;56269;51.738;21.652;2022-11-15T10:24:19;29.13;;;11.65;;
69161;SDS011;56269;51.738;21.652;2022-11-15T10:26:50;28.23;;;10.00;;
69161;SDS011;56269;51.738;21.652;2022-11-15T10:29:20;27.48;;;10.80;;
69161;SDS011;56269;51.738;21.652;2022-11-15T10:31:47;30.90;;;11.20;;
69161;SDS011;56269;51.738;21.652;2022-11-15T10:36:45;17.73;;;7.22;;
69161;SDS011;56269;51.738;21.652;2022-11-15T10:39:12;29.10;;;11.25;;
69161;SDS011;56269;51.738;21.652;2022-11-15T10:41:40;31.27;;;13.13;;
69161;SDS011;56269;51.738;21.652;2022-11-15T10:44:12;31.33;;;12.30;;
69161;SDS011;56269;51.738;21.652;2022-11-15T10:46:45;29.27;;;11.87;;
69161;SDS011;56269;51.738;21.652;2022-11-15T10:49:25;30.35;;;10.77;;
69161;SDS011;56269;51.738;21.652;2022-11-15T10:51:57;27.50;;;11.23;;
69161;SDS011;56269;51.738;21.652;2022-11-15T10:54:24;28.27;;;10.95;;
69161;SDS011;56269;51.738;21.652;2022-11-15T10:57:05;31.08;;;12.25;;
69161;SDS011;56269;51.738;21.652;2022-11-15T10:59:37;28.30;;;11.57;;
69161;SDS011;56269;51.738;21.652;2022-11-15T11:13:24;36.60;;;14.47;;
69161;SDS011;56269;51.738;21.652;2022-11-15T11:15:58;38.70;;;14.95;;
69161;SDS011;56269;51.738;21.652;2022-11-15T11:24:32;32.15;;;12.95;;
69161;SDS011;56269;51.738;21.652;2022-11-15T11:27:18;25.17;;;10.53;;
69161;SDS011;56269;51.738;21.652;2022-11-15T11:32:30;22.95;;;8.77;;
69161;SDS011;56269;51.738;21.652;2022-11-15T11:38:15;28.33;;;11.75;;
69161;SDS011;56269;51.738;21.652;2022-11-15T11:46:47;61.42;;;23.55;;
69161;SDS011;56269;51.738;21.652;2022-11-15T11:49:21;38.70;;;14.15;;
69161;SDS011;56269;51.738;21.652;2022-11-15T11:52:18;31.15;;;12.13;;
69161;SDS011;56269;51.738;21.652;2022-11-15T12:00:04;30.85;;;12.90;;
69161;SDS011;56269;51.738;21.652;2022-11-15T12:02:45;34.20;;;12.48;;
69161;SDS011;56269;51.738;21.652;2022-11-15T12:05:40;67.22;;;23.95;;
69161;SDS011;56269;51.738;21.652;2022-11-15T12:10:42;39.40;;;15.60;;
69161;SDS011;56269;51.738;21.652;2022-11-15T12:13:19;33.00;;;13.05;;
69161;SDS011;56269;51.738;21.652;2022-11-15T12:16:07;33.15;;;12.98;;
69161;SDS011;56269;51.738;21.652;2022-11-15T12:18:40;35.10;;;14.02;;
69161;SDS011;56269;51.738;21.652;2022-11-15T12:21:18;31.23;;;12.57;;
69161;SDS011;56269;51.738;21.652;2022-11-15T12:24:11;31.73;;;13.63;;
69161;SDS011;56269;51.738;21.652;2022-11-15T12:26:47;31.92;;;13.50;;
69161;SDS011;56269;51.738;21.652;2022-11-15T12:29:23;29.30;;;12.38;;
69161;SDS011;56269;51.738;21.652;2022-11-15T12:31:57;31.65;;;11.98;;
69161;SDS011;56269;51.738;21.652;2022-11-15T12:34:29;31.13;;;13.33;;
69161;SDS011;56269;51.738;21.652;2022-11-15T12:37:31;31.13;;;13.40;;
69161;SDS011;56269;51.738;21.652;2022-11-15T12:44:57;30.33;;;13.15;;
69161;SDS011;56269;51.738;21.652;2022-11-15T12:47:25;27.87;;;12.13;;
69161;SDS011;56269;51.738;21.652;2022-11-15T12:49:52;28.77;;;12.27;;
69161;SDS011;56269;51.738;21.652;2022-11-15T12:52:19;24.58;;;9.65;;
69161;SDS011;56269;51.738;21.652;2022-11-15T13:02:19;31.95;;;12.80;;
69161;SDS011;56269;51.738;21.652;2022-11-15T13:07:56;29.05;;;12.38;;
69161;SDS011;56269;51.738;21.652;2022-11-15T13:13:08;29.97;;;12.57;;
69161;SDS011;56269;51.738;21.652;2022-11-15T13:15:36;26.52;;;9.88;;
69161;SDS011;56269;51.738;21.652;2022-11-15T13:18:28;28.05;;;12.13;;
69161;SDS011;56269;51.738;21.652;2022-11-15T13:20:57;28.80;;;12.43;;
69161;SDS011;56269;51.738;21.652;2022-11-15T13:23:24;30.58;;;12.75;;
69161;SDS011;56269;51.738;21.652;2022-11-15T13:28:46;28.73;;;11.70;;
69161;SDS011;56269;51.738;21.652;2022-11-15T13:33:55;27.33;;;12.05;;
69161;SDS011;56269;51.738;21.652;2022-11-15T13:36:24;30.65;;;12.82;;
69161;SDS011;56269;51.738;21.652;2022-11-15T13:39:01;30.10;;;12.60;;
69161;SDS011;56269;51.738;21.652;2022-11-15T13:41:34;31.83;;;13.18;;
69161;SDS011;56269;51.738;21.652;2022-11-15T13:44:01;32.08;;;13.32;;
69161;SDS011;56269;51.738;21.652;2022-11-15T13:46:32;26.60;;;11.52;;
69161;SDS011;56269;51.738;21.652;2022-11-15T13:49:07;29.92;;;11.38;;
69161;SDS011;56269;51.738;21.652;2022-11-15T13:51:51;24.13;;;10.27;;
69161;SDS011;56269;51.738;21.652;2022-11-15T13:56:52;33.90;;;12.93;;
69161;SDS011;56269;51.738;21.652;2022-11-15T13:59:28;26.58;;;11.63;;
69161;SDS011;56269;51.738;21.652;2022-11-15T14:02:32;29.05;;;12.50;;
69161;SDS011;56269;51.738;21.652;2022-11-15T14:05:03;29.83;;;11.40;;
69161;SDS011;56269;51.738;21.652;2022-11-15T14:07:53;31.75;;;12.10;;
69161;SDS011;56269;51.738;21.652;2022-11-15T14:10:38;34.30;;;12.63;;
69161;SDS011;56269;51.738;21.652;2022-11-15T14:13:10;27.02;;;11.07;;
69161;SDS011;56269;51.738;21.652;2022-11-15T14:15:52;28.98;;;11.88;;
69161;SDS011;56269;51.738;21.652;2022-11-15T14:21:24;26.77;;;11.15;;
69161;SDS011;56269;51.738;21.652;2022-11-15T14:23:50;31.70;;;12.93;;
69161;SDS011;56269;51.738;21.652;2022-11-15T14:26:32;32.67;;;12.50;;
69161;SDS011;56269;51.738;21.652;2022-11-15T14:29:21;30.17;;;12.13;;
69161;SDS011;56269;51.738;21.652;2022-11-15T14:31:47;35.37;;;14.23;;
69161;SDS011;56269;51.738;21.652;2022-11-15T14:34:14;30.58;;;12.60;;
69161;SDS011;56269;51.738;21.652;2022-11-15T14:36:40;31.88;;;12.77;;
69161;SDS011;56269;51.738;21.652;2022-11-15T14:39:07;34.75;;;13.25;;
69161;SDS011;56269;51.738;21.652;2022-11-15T14:41:36;34.03;;;13.35;;
69161;SDS011;56269;51.738;21.652;2022-11-15T14:44:05;31.90;;;13.03;;
69161;SDS011;56269;51.738;21.652;2022-11-15T14:46:32;31.08;;;10.85;;
69161;SDS011;56269;51.738;21.652;2022-11-15T14:48:58;34.50;;;12.55;;
69161;SDS011;56269;51.738;21.652;2022-11-15T14:51:24;33.67;;;13.07;;
69161;SDS011;56269;51.738;21.652;2022-11-15T14:53:51;34.38;;;12.27;;
69161;SDS011;56269;51.738;21.652;2022-11-15T14:56:18;33.47;;;13.13;;
69161;SDS011;56269;51.738;21.652;2022-11-15T14:58:44;33.50;;;13.00;;
69161;SDS011;56269;51.738;21.652;2022-11-15T15:01:20;32.05;;;11.98;;
69161;SDS011;56269;51.738;21.652;2022-11-15T15:03:49;36.85;;;12.52;;
69161;SDS011;56269;51.738;21.652;2022-11-15T15:06:17;23.95;;;9.70;;
69161;SDS011;56269;51.738;21.652;2022-11-15T15:08:45;37.03;;;13.10;;
69161;SDS011;56269;51.738;21.652;2022-11-15T15:11:15;38.45;;;14.55;;
69161;SDS011;56269;51.738;21.652;2022-11-15T15:13:46;40.22;;;14.55;;
69161;SDS011;56269;51.738;21.652;2022-11-15T15:16:12;41.10;;;15.13;;
69161;SDS011;56269;51.738;21.652;2022-11-15T15:18:39;45.80;;;14.52;;
69161;SDS011;56269;51.738;21.652;2022-11-15T15:21:11;39.10;;;14.00;;
69161;SDS011;56269;51.738;21.652;2022-11-15T15:23:51;38.08;;;14.27;;
69161;SDS011;56269;51.738;21.652;2022-11-15T15:26:19;42.60;;;15.55;;
69161;SDS011;56269;51.738;21.652;2022-11-15T15:28:46;39.05;;;14.82;;
69161;SDS011;56269;51.738;21.652;2022-11-15T15:31:14;36.28;;;13.50;;
69161;SDS011;56269;51.738;21.652;2022-11-15T15:33:40;38.43;;;14.40;;
69161;SDS011;56269;51.738;21.652;2022-11-15T15:36:13;35.85;;;13.77;;
69161;SDS011;56269;51.738;21.652;2022-11-15T15:38:42;36.83;;;14.20;;
69161;SDS011;56269;51.738;21.652;2022-11-15T15:41:11;41.10;;;15.68;;
69161;SDS011;56269;51.738;21.652;2022-11-15T15:43:39;42.35;;;14.77;;
69161;SDS011;56269;51.738;21.652;2022-11-15T15:46:12;40.03;;;14.97;;
69161;SDS011;56269;51.738;21.652;2022-11-15T15:48:41;35.90;;;13.77;;
69161;SDS011;56269;51.738;21.652;2022-11-15T15:51:07;41.28;;;14.27;;
69161;SDS011;56269;51.738;21.652;2022-11-15T15:53:33;38.78;;;15.20;;
69161;SDS011;56269;51.738;21.652;2022-11-15T15:55:59;42.88;;;16.10;;
69161;SDS011;56269;51.738;21.652;2022-11-15T15:58:26;44.67;;;15.33;;
69161;SDS011;56269;51.738;21.652;2022-11-15T16:00:52;41.20;;;15.05;;
69161;SDS011;56269;51.738;21.652;2022-11-15T16:03:18;38.22;;;15.43;;
69161;SDS011;56269;51.738;21.652;2022-11-15T16:05:45;40.78;;;15.00;;
69161;SDS011;56269;51.738;21.652;2022-11-15T16:08:21;44.67;;;16.58;;
69161;SDS011;56269;51.738;21.652;2022-11-15T16:10:49;46.53;;;15.93;;
69161;SDS011;56269;51.738;21.652;2022-11-15T16:13:15;49.78;;;17.25;;
69161;SDS011;56269;51.738;21.652;2022-11-15T16:15:42;45.88;;;16.17;;
69161;SDS011;56269;51.738;21.652;2022-11-15T16:18:14;47.35;;;16.27;;
69161;SDS011;56269;51.738;21.652;2022-11-15T16:20:42;49.08;;;15.77;;
69161;SDS011;56269;51.738;21.652;2022-11-15T16:23:16;46.07;;;15.93;;
69161;SDS011;56269;51.738;21.652;2022-11-15T16:25:46;44.05;;;16.67;;
69161;SDS011;56269;51.738;21.652;2022-11-15T16:28:18;49.80;;;17.13;;
69161;SDS011;56269;51.738;21.652;2022-11-15T16:30:46;47.50;;;16.48;;